Nautilus Survey — LIXR — position and weather

sailwx.info

Track history (hours):
 
Tides and Currents Weather Stations Pressure Air Temp Water Temp Dewpoint Dewpoint Depression Visibility Wind Speed Wind Dir Waves Ship Positions

Nautilus Survey

Last reported at 2014-Oct-01 05:33 UTC. Time now 2014-Oct-01 06:09 UTC.
Position N 67°08' E 015°24'.

Length 22 m; draft 2 m.

Type: Dredging. MMSI: 259464000.

Date/timePositionNaut miles runAvg speedWind from/ knotsBaromVisibWave heightAir tempDewpointWater temp
2014-Oct-01 05:33N 67°08' E 015°24'0 0.0
2014-Oct-01 04:33N 67°08' E 015°24'0 0.0
2014-Oct-01 03:33N 67°08' E 015°24'0 0.0
2014-Oct-01 02:33N 67°08' E 015°24'0 0.0
2014-Oct-01 01:33N 67°08' E 015°24'0 0.0
2014-Oct-01 00:33N 67°08' E 015°24'0 0.0
2014-Sep-30 23:33N 67°08' E 015°24'0 0.0
2014-Sep-30 22:33N 67°08' E 015°24'0 0.0
2014-Sep-30 21:33N 67°08' E 015°24'0 0.0
2014-Sep-30 20:33N 67°08' E 015°24'0 0.0
2014-Sep-30 19:33N 67°08' E 015°24'0 0.0
2014-Sep-30 18:33N 67°08' E 015°24'0 0.0
2014-Sep-30 17:33N 67°08' E 015°24'0 0.0
2014-Sep-30 16:33N 67°08' E 015°24'6 5.9
2014-Sep-30 15:33N 67°13' E 015°16'9 8.8
2014-Sep-30 14:33N 67°15' E 014°53'7 7.2
2014-Sep-30 13:33N 67°15' E 014°35'58 3.1
2014-Sep-29 19:15N 66°32' E 012°58'6 9.0
2014-Sep-29 18:33N 66°26' E 012°49'6 5.5
2014-Sep-29 17:33N 66°21' E 012°46'5 5.3
2014-Sep-29 16:33N 66°23' E 012°34'2 0.8
2014-Sep-29 14:33N 66°21' E 012°32'0 0.0
2014-Sep-29 13:33N 66°21' E 012°32'0 0.0
2014-Sep-29 12:33N 66°21' E 012°32'0 0.0
2014-Sep-29 11:33N 66°21' E 012°32'0 0.1
2014-Sep-29 10:33N 66°21' E 012°32'0 0.0
2014-Sep-29 09:33N 66°21' E 012°32'0 0.0
2014-Sep-29 08:33N 66°21' E 012°32'0 0.0
2014-Sep-29 07:33N 66°21' E 012°32'3 2.7
2014-Sep-29 06:33N 66°24' E 012°31'4 3.8
2014-Sep-29 05:33N 66°22' E 012°22'0 0.0
2014-Sep-29 04:33N 66°22' E 012°22'0 0.0
2014-Sep-29 03:33N 66°22' E 012°22'0 0.0
2014-Sep-29 02:33N 66°22' E 012°22'0 0.0
2014-Sep-29 01:33N 66°22' E 012°22'0 0.0
2014-Sep-29 00:33N 66°22' E 012°22'0 0.0
2014-Sep-28 23:33N 66°22' E 012°22'0 0.0
2014-Sep-28 22:33N 66°22' E 012°22'0 0.0
2014-Sep-28 21:33N 66°22' E 012°22'0 0.0
2014-Sep-28 20:33N 66°22' E 012°22'0 0.0
2014-Sep-28 19:33N 66°22' E 012°22'0 0.0
2014-Sep-28 18:33N 66°22' E 012°22'0 0.0
2014-Sep-28 17:33N 66°22' E 012°22'0 0.0
2014-Sep-28 15:33N 66°22' E 012°22'0 0.0
2014-Sep-28 14:33N 66°22' E 012°22'5 5.1
2014-Sep-28 13:33N 66°22' E 012°35'2 1.6
2014-Sep-28 12:33N 66°21' E 012°32'0 0.0
2014-Sep-28 11:33N 66°21' E 012°32'0 0.0
2014-Sep-28 10:33N 66°21' E 012°32'0 0.0
2014-Sep-28 09:33N 66°21' E 012°32'0 0.0
2014-Sep-28 08:33N 66°21' E 012°32'0 0.0
2014-Sep-28 07:33N 66°21' E 012°32'3 2.8
2014-Sep-28 06:33N 66°24' E 012°33'5 4.7
2014-Sep-28 05:33N 66°22' E 012°22'0 0.0
2014-Sep-28 04:33N 66°22' E 012°22'0 0.0
2014-Sep-28 03:33N 66°22' E 012°22'0 0.0
2014-Sep-28 02:33N 66°22' E 012°22'0 0.0
2014-Sep-28 01:33N 66°22' E 012°22'0 0.0
2014-Sep-28 00:33N 66°22' E 012°22'0 0.0
2014-Sep-27 23:33N 66°22' E 012°22'0 0.0
2014-Sep-27 22:33N 66°22' E 012°22'0 0.0
2014-Sep-27 21:33N 66°22' E 012°22'0 0.0
2014-Sep-27 20:33N 66°22' E 012°22'0 0.0
2014-Sep-27 19:33N 66°22' E 012°22'0 0.0
2014-Sep-27 18:33N 66°22' E 012°22'0 0.0
2014-Sep-27 17:33N 66°22' E 012°22'0 0.0
2014-Sep-27 16:33N 66°22' E 012°22'0 0.0
2014-Sep-27 15:33N 66°22' E 012°22'0 0.0
2014-Sep-27 14:33N 66°22' E 012°22'0 0.0
2014-Sep-27 13:33N 66°22' E 012°22'0 0.0
2014-Sep-27 12:33N 66°22' E 012°22'0 0.0
2014-Sep-27 11:33N 66°22' E 012°22'0 0.0
2014-Sep-27 10:33N 66°22' E 012°22'0 0.0
2014-Sep-27 09:33N 66°22' E 012°22'0 0.1
2014-Sep-27 08:33N 66°22' E 012°22'0 0.0
2014-Sep-27 07:33N 66°22' E 012°22'5 5.2
2014-Sep-27 06:33N 66°23' E 012°35'1 0.9
2014-Sep-27 05:33N 66°23' E 012°34'0 0.0
2014-Sep-27 04:33N 66°23' E 012°34'0 0.0
2014-Sep-27 03:33N 66°23' E 012°34'0 0.0
2014-Sep-27 02:33N 66°23' E 012°34'0 0.0
2014-Sep-27 01:33N 66°23' E 012°34'0 0.0
2014-Sep-27 00:33N 66°23' E 012°34'0 0.0
2014-Sep-26 23:33N 66°23' E 012°34'0 0.0
2014-Sep-26 22:33N 66°23' E 012°34'0 0.0
2014-Sep-26 21:33N 66°23' E 012°34'0 0.0
2014-Sep-26 20:33N 66°23' E 012°34'0 0.0
2014-Sep-26 19:33N 66°23' E 012°34'0 0.0
2014-Sep-26 18:33N 66°23' E 012°34'0 0.0
2014-Sep-26 17:33N 66°23' E 012°34'0 0.0
2014-Sep-26 16:33N 66°23' E 012°34'0 0.0
2014-Sep-26 15:33N 66°23' E 012°34'0 0.0
2014-Sep-26 14:33N 66°23' E 012°34'0 0.0
2014-Sep-26 13:33N 66°23' E 012°34'5 4.8
2014-Sep-26 12:33N 66°21' E 012°45'1 0.5
2014-Sep-26 11:31N 66°21' E 012°47'5 4.8
2014-Sep-26 10:33N 66°23' E 012°36'2 2.4
2014-Sep-26 09:33N 66°21' E 012°32'0 0.1
2014-Sep-26 08:33N 66°21' E 012°32'0 0.0
2014-Sep-26 07:33N 66°21' E 012°32'0 0.0
2014-Sep-26 06:33N 66°21' E 012°32'2 1.5
2014-Sep-26 05:33N 66°23' E 012°34'0 0.0
2014-Sep-26 04:33N 66°23' E 012°34'0 0.0
2014-Sep-26 03:33N 66°23' E 012°34'0 0.0
2014-Sep-26 02:33N 66°23' E 012°34'0 0.0
2014-Sep-26 01:33N 66°23' E 012°34'0 0.0
2014-Sep-26 00:33N 66°23' E 012°34'0 0.0
2014-Sep-25 23:33N 66°23' E 012°34'0 0.0
2014-Sep-25 22:33N 66°23' E 012°34'0 0.0
2014-Sep-25 21:33N 66°23' E 012°34'0 0.0
2014-Sep-25 20:33N 66°23' E 012°34'0 0.0
2014-Sep-25 19:33N 66°23' E 012°34'0 0.0
2014-Sep-25 18:33N 66°23' E 012°34'2 1.5
2014-Sep-25 17:33N 66°21' E 012°32'0 0.0
2014-Sep-25 16:33N 66°21' E 012°32'0 0.0
2014-Sep-25 15:33N 66°21' E 012°32'0 0.0
2014-Sep-25 14:33N 66°21' E 012°32'0 0.0
2014-Sep-25 13:33N 66°21' E 012°32'0 0.0
2014-Sep-25 12:33N 66°21' E 012°32'0 0.0
2014-Sep-25 11:33N 66°21' E 012°32'6 6.4
2014-Sep-25 10:33N 66°16' E 012°24'4 0.1
2014-Sep-23 08:32N 66°12' E 012°26'8 8.6
2014-Sep-23 07:33N 66°21' E 012°24'8 8.4
2014-Sep-23 06:33N 66°28' E 012°13'4 3.6
2014-Sep-23 05:33N 66°30' E 012°06'0 0.0
2014-Sep-23 04:33N 66°30' E 012°06'0 0.0
2014-Sep-23 03:33N 66°30' E 012°06'0 0.0
2014-Sep-23 02:33N 66°30' E 012°06'0 0.0
2014-Sep-23 01:33N 66°30' E 012°06'0 0.0
2014-Sep-23 00:33N 66°30' E 012°06'0 0.0
2014-Sep-22 23:33N 66°30' E 012°06'0 0.0
2014-Sep-22 22:33N 66°30' E 012°06'0 0.0
2014-Sep-22 21:33N 66°30' E 012°06'0 0.0
2014-Sep-22 20:33N 66°30' E 012°06'0 0.0
2014-Sep-22 19:33N 66°30' E 012°06'0 0.0
2014-Sep-22 18:33N 66°30' E 012°06'0 0.0
2014-Sep-22 17:33N 66°30' E 012°06'0 0.0
2014-Sep-22 16:33N 66°30' E 012°06'0 0.0
2014-Sep-22 15:33N 66°30' E 012°06'0 0.3
2014-Sep-22 14:33N 66°30' E 012°07'0 0.0
2014-Sep-22 13:33N 66°30' E 012°07'0 0.0
2014-Sep-22 12:33N 66°30' E 012°07'0 0.0
2014-Sep-22 11:33N 66°30' E 012°07'0 0.0
2014-Sep-22 10:33N 66°30' E 012°07'0 0.0
2014-Sep-22 09:33N 66°30' E 012°07'0 0.1
2014-Sep-22 08:33N 66°30' E 012°07'0 0.2
2014-Sep-22 07:22N 66°30' E 012°06'7 8.3
2014-Sep-22 06:33N 66°25' E 012°18'4 3.9
2014-Sep-22 05:33N 66°22' E 012°22'0 0.0
2014-Sep-22 04:33N 66°22' E 012°22'0 0.0
2014-Sep-22 03:33N 66°22' E 012°22'0 0.0
2014-Sep-22 02:33N 66°22' E 012°22'0 0.0
2014-Sep-22 01:33N 66°22' E 012°22'0 0.0
2014-Sep-22 00:33N 66°22' E 012°22'0 0.0
2014-Sep-21 23:33N 66°22' E 012°22'0 0.0
2014-Sep-21 22:33N 66°22' E 012°22'0 0.0
2014-Sep-21 21:33N 66°22' E 012°22'0 0.0
2014-Sep-21 20:33N 66°22' E 012°22'0 0.0
2014-Sep-21 19:33N 66°22' E 012°22'0 0.0
2014-Sep-21 18:33N 66°22' E 012°22'5 5.3
2014-Sep-21 17:33N 66°17' E 012°24'  
Track history (hours):
 
Tides and Currents Weather Stations Pressure Air Temp Water Temp Dewpoint Dewpoint Depression Visibility Wind Speed Wind Dir Waves Ship Positions

Nautilus Survey

Last reported at 2014-Oct-01 05:33 UTC. Time now 2014-Oct-01 06:09 UTC.
Position N 67°08' E 015°24'.

Length 22 m; draft 2 m.

Type: Dredging. MMSI: 259464000.

Date/timePositionNaut miles runAvg speedWind from/ knotsBaromVisibWave heightAir tempDewpointWater temp
2014-Oct-01 05:33N 67°08' E 015°24'0 0.0
2014-Oct-01 04:33N 67°08' E 015°24'0 0.0
2014-Oct-01 03:33N 67°08' E 015°24'0 0.0
2014-Oct-01 02:33N 67°08' E 015°24'0 0.0
2014-Oct-01 01:33N 67°08' E 015°24'0 0.0
2014-Oct-01 00:33N 67°08' E 015°24'0 0.0
2014-Sep-30 23:33N 67°08' E 015°24'0 0.0
2014-Sep-30 22:33N 67°08' E 015°24'0 0.0
2014-Sep-30 21:33N 67°08' E 015°24'0 0.0
2014-Sep-30 20:33N 67°08' E 015°24'0 0.0
2014-Sep-30 19:33N 67°08' E 015°24'0 0.0
2014-Sep-30 18:33N 67°08' E 015°24'0 0.0
2014-Sep-30 17:33N 67°08' E 015°24'0 0.0
2014-Sep-30 16:33N 67°08' E 015°24'6 5.9
2014-Sep-30 15:33N 67°13' E 015°16'9 8.8
2014-Sep-30 14:33N 67°15' E 014°53'7 7.2
2014-Sep-30 13:33N 67°15' E 014°35'58 3.1
2014-Sep-29 19:15N 66°32' E 012°58'6 9.0
2014-Sep-29 18:33N 66°26' E 012°49'6 5.5
2014-Sep-29 17:33N 66°21' E 012°46'5 5.3
2014-Sep-29 16:33N 66°23' E 012°34'2 0.8
2014-Sep-29 14:33N 66°21' E 012°32'0 0.0
2014-Sep-29 13:33N 66°21' E 012°32'0 0.0
2014-Sep-29 12:33N 66°21' E 012°32'0 0.0
2014-Sep-29 11:33N 66°21' E 012°32'0 0.1
2014-Sep-29 10:33N 66°21' E 012°32'0 0.0
2014-Sep-29 09:33N 66°21' E 012°32'0 0.0
2014-Sep-29 08:33N 66°21' E 012°32'0 0.0
2014-Sep-29 07:33N 66°21' E 012°32'3 2.7
2014-Sep-29 06:33N 66°24' E 012°31'4 3.8
2014-Sep-29 05:33N 66°22' E 012°22'0 0.0
2014-Sep-29 04:33N 66°22' E 012°22'0 0.0
2014-Sep-29 03:33N 66°22' E 012°22'0 0.0
2014-Sep-29 02:33N 66°22' E 012°22'0 0.0
2014-Sep-29 01:33N 66°22' E 012°22'0 0.0
2014-Sep-29 00:33N 66°22' E 012°22'0 0.0
2014-Sep-28 23:33N 66°22' E 012°22'0 0.0
2014-Sep-28 22:33N 66°22' E 012°22'0 0.0
2014-Sep-28 21:33N 66°22' E 012°22'0 0.0
2014-Sep-28 20:33N 66°22' E 012°22'0 0.0
2014-Sep-28 19:33N 66°22' E 012°22'0 0.0
2014-Sep-28 18:33N 66°22' E 012°22'0 0.0
2014-Sep-28 17:33N 66°22' E 012°22'0 0.0
2014-Sep-28 15:33N 66°22' E 012°22'0 0.0
2014-Sep-28 14:33N 66°22' E 012°22'5 5.1
2014-Sep-28 13:33N 66°22' E 012°35'2 1.6
2014-Sep-28 12:33N 66°21' E 012°32'0 0.0
2014-Sep-28 11:33N 66°21' E 012°32'0 0.0
2014-Sep-28 10:33N 66°21' E 012°32'0 0.0
2014-Sep-28 09:33N 66°21' E 012°32'0 0.0
2014-Sep-28 08:33N 66°21' E 012°32'0 0.0
2014-Sep-28 07:33N 66°21' E 012°32'3 2.8
2014-Sep-28 06:33N 66°24' E 012°33'5 4.7
2014-Sep-28 05:33N 66°22' E 012°22'0 0.0
2014-Sep-28 04:33N 66°22' E 012°22'0 0.0
2014-Sep-28 03:33N 66°22' E 012°22'0 0.0
2014-Sep-28 02:33N 66°22' E 012°22'0 0.0
2014-Sep-28 01:33N 66°22' E 012°22'0 0.0
2014-Sep-28 00:33N 66°22' E 012°22'0 0.0
2014-Sep-27 23:33N 66°22' E 012°22'0 0.0
2014-Sep-27 22:33N 66°22' E 012°22'0 0.0
2014-Sep-27 21:33N 66°22' E 012°22'0 0.0
2014-Sep-27 20:33N 66°22' E 012°22'0 0.0
2014-Sep-27 19:33N 66°22' E 012°22'0 0.0
2014-Sep-27 18:33N 66°22' E 012°22'0 0.0
2014-Sep-27 17:33N 66°22' E 012°22'0 0.0
2014-Sep-27 16:33N 66°22' E 012°22'0 0.0
2014-Sep-27 15:33N 66°22' E 012°22'0 0.0
2014-Sep-27 14:33N 66°22' E 012°22'0 0.0
2014-Sep-27 13:33N 66°22' E 012°22'0 0.0
2014-Sep-27 12:33N 66°22' E 012°22'0 0.0
2014-Sep-27 11:33N 66°22' E 012°22'0 0.0
2014-Sep-27 10:33N 66°22' E 012°22'0 0.0
2014-Sep-27 09:33N 66°22' E 012°22'0 0.1
2014-Sep-27 08:33N 66°22' E 012°22'0 0.0
2014-Sep-27 07:33N 66°22' E 012°22'5 5.2
2014-Sep-27 06:33N 66°23' E 012°35'1 0.9
2014-Sep-27 05:33N 66°23' E 012°34'0 0.0
2014-Sep-27 04:33N 66°23' E 012°34'0 0.0
2014-Sep-27 03:33N 66°23' E 012°34'0 0.0
2014-Sep-27 02:33N 66°23' E 012°34'0 0.0
2014-Sep-27 01:33N 66°23' E 012°34'0 0.0
2014-Sep-27 00:33N 66°23' E 012°34'0 0.0
2014-Sep-26 23:33N 66°23' E 012°34'0 0.0
2014-Sep-26 22:33N 66°23' E 012°34'0 0.0
2014-Sep-26 21:33N 66°23' E 012°34'0 0.0
2014-Sep-26 20:33N 66°23' E 012°34'0 0.0
2014-Sep-26 19:33N 66°23' E 012°34'0 0.0
2014-Sep-26 18:33N 66°23' E 012°34'0 0.0
2014-Sep-26 17:33N 66°23' E 012°34'0 0.0
2014-Sep-26 16:33N 66°23' E 012°34'0 0.0
2014-Sep-26 15:33N 66°23' E 012°34'0 0.0
2014-Sep-26 14:33N 66°23' E 012°34'0 0.0
2014-Sep-26 13:33N 66°23' E 012°34'5 4.8
2014-Sep-26 12:33N 66°21' E 012°45'1 0.5
2014-Sep-26 11:31N 66°21' E 012°47'5 4.8
2014-Sep-26 10:33N 66°23' E 012°36'2 2.4
2014-Sep-26 09:33N 66°21' E 012°32'0 0.1
2014-Sep-26 08:33N 66°21' E 012°32'0 0.0
2014-Sep-26 07:33N 66°21' E 012°32'0 0.0
2014-Sep-26 06:33N 66°21' E 012°32'2 1.5
2014-Sep-26 05:33N 66°23' E 012°34'0 0.0
2014-Sep-26 04:33N 66°23' E 012°34'0 0.0
2014-Sep-26 03:33N 66°23' E 012°34'0 0.0
2014-Sep-26 02:33N 66°23' E 012°34'0 0.0
2014-Sep-26 01:33N 66°23' E 012°34'0 0.0
2014-Sep-26 00:33N 66°23' E 012°34'0 0.0
2014-Sep-25 23:33N 66°23' E 012°34'0 0.0
2014-Sep-25 22:33N 66°23' E 012°34'0 0.0
2014-Sep-25 21:33N 66°23' E 012°34'0 0.0
2014-Sep-25 20:33N 66°23' E 012°34'0 0.0
2014-Sep-25 19:33N 66°23' E 012°34'0 0.0
2014-Sep-25 18:33N 66°23' E 012°34'2 1.5
2014-Sep-25 17:33N 66°21' E 012°32'0 0.0
2014-Sep-25 16:33N 66°21' E 012°32'0 0.0
2014-Sep-25 15:33N 66°21' E 012°32'0 0.0
2014-Sep-25 14:33N 66°21' E 012°32'0 0.0
2014-Sep-25 13:33N 66°21' E 012°32'0 0.0
2014-Sep-25 12:33N 66°21' E 012°32'0 0.0
2014-Sep-25 11:33N 66°21' E 012°32'6 6.4
2014-Sep-25 10:33N 66°16' E 012°24'4 0.1
2014-Sep-23 08:32N 66°12' E 012°26'8 8.6
2014-Sep-23 07:33N 66°21' E 012°24'8 8.4
2014-Sep-23 06:33N 66°28' E 012°13'4 3.6
2014-Sep-23 05:33N 66°30' E 012°06'0 0.0
2014-Sep-23 04:33N 66°30' E 012°06'0 0.0
2014-Sep-23 03:33N 66°30' E 012°06'0 0.0
2014-Sep-23 02:33N 66°30' E 012°06'0 0.0
2014-Sep-23 01:33N 66°30' E 012°06'0 0.0
2014-Sep-23 00:33N 66°30' E 012°06'0 0.0
2014-Sep-22 23:33N 66°30' E 012°06'0 0.0
2014-Sep-22 22:33N 66°30' E 012°06'0 0.0
2014-Sep-22 21:33N 66°30' E 012°06'0 0.0
2014-Sep-22 20:33N 66°30' E 012°06'0 0.0
2014-Sep-22 19:33N 66°30' E 012°06'0 0.0
2014-Sep-22 18:33N 66°30' E 012°06'0 0.0
2014-Sep-22 17:33N 66°30' E 012°06'0 0.0
2014-Sep-22 16:33N 66°30' E 012°06'0 0.0
2014-Sep-22 15:33N 66°30' E 012°06'0 0.3
2014-Sep-22 14:33N 66°30' E 012°07'0 0.0
2014-Sep-22 13:33N 66°30' E 012°07'0 0.0
2014-Sep-22 12:33N 66°30' E 012°07'0 0.0
2014-Sep-22 11:33N 66°30' E 012°07'0 0.0
2014-Sep-22 10:33N 66°30' E 012°07'0 0.0
2014-Sep-22 09:33N 66°30' E 012°07'0 0.1
2014-Sep-22 08:33N 66°30' E 012°07'0 0.2
2014-Sep-22 07:22N 66°30' E 012°06'7 8.3
2014-Sep-22 06:33N 66°25' E 012°18'4 3.9
2014-Sep-22 05:33N 66°22' E 012°22'0 0.0
2014-Sep-22 04:33N 66°22' E 012°22'0 0.0
2014-Sep-22 03:33N 66°22' E 012°22'0 0.0
2014-Sep-22 02:33N 66°22' E 012°22'0 0.0
2014-Sep-22 01:33N 66°22' E 012°22'0 0.0
2014-Sep-22 00:33N 66°22' E 012°22'0 0.0
2014-Sep-21 23:33N 66°22' E 012°22'0 0.0
2014-Sep-21 22:33N 66°22' E 012°22'0 0.0
2014-Sep-21 21:33N 66°22' E 012°22'0 0.0
2014-Sep-21 20:33N 66°22' E 012°22'0 0.0
2014-Sep-21 19:33N 66°22' E 012°22'0 0.0
2014-Sep-21 18:33N 66°22' E 012°22'5 5.3
2014-Sep-21 17:33N 66°17' E 012°24'  

Dump ship's entire track history